Terminal Aerodrome Forecast
Issued by NWS King Salmon, AK

Home | Current Version | Previous Version | Text Only | Print | Product List | Glossary On
Versions: 1 2 3 4 5 6 7 8 9 10 11 12 13 14 15 16 17 18 19 20 21 22 23 24 25 26 27
000
FTAK31 PANC 270538
TAFAKN
TAF
PAKN 270538Z 2706/2806 VRB04KT P6SM VCSH SCT035 BKN050
     FM271000 18005KT P6SM SCT035 BKN060
     FM280200 22007KT P6SM -SHRA SCT035 BKN050=

USA.gov is the U.S. government's official web portal to all federal, state and local government web resources and services.